Time;durP1;ratioP1;P1;durP2;ratioP2;P2;SDS_P1;SDS_P2;PMS_P1;PMS_P2;Temp;Humidity;BMP_temperature;BMP_pressure;BME280_temperature;BME280_humidity;BME280_pressure;Samples;Min_cycle;Max_cycle;Signal;HPM_P1;HPM_P2
2023/03/31 00:04:22;;;;;;;2.08;0.90;;;;;;;8.51;100.00;97564.44;15305533;19;20037;-86
2023/03/31 00:09:53;;;;;;;5.82;1.02;;;;;;;8.46;100.00;97560.41;15300689;19;20018;-85
2023/03/31 00:15:37;;;;;;;2.97;0.98;;;;;;;8.48;100.00;97549.50;15300639;19;20085;-85
2023/03/31 00:21:13;;;;;;;4.10;1.13;;;;;;;8.48;100.00;97530.72;15308536;19;20054;-86
2023/03/31 00:26:42;;;;;;;4.32;1.10;;;;;;;8.53;100.00;97524.84;15312217;19;20352;-86
2023/03/31 00:32:10;;;;;;;3.13;1.13;;;;;;;8.53;100.00;97517.59;15316611;19;20029;-86
2023/03/31 00:37:35;;;;;;;3.10;1.10;;;;;;;8.51;100.00;97508.91;15313070;19;20019;-86
2023/03/31 00:43:03;;;;;;;3.22;1.13;;;;;;;8.50;100.00;97493.81;15319637;19;20023;-87
2023/03/31 00:48:29;;;;;;;4.03;1.25;;;;;;;8.52;100.00;97505.22;15314384;19;20086;-87
2023/03/31 00:53:59;;;;;;;5.28;1.30;;;;;;;8.64;100.00;97484.22;15336891;19;20019;-85
2023/03/31 00:59:36;;;;;;;3.28;1.17;;;;;;;8.68;100.00;97466.75;15315855;19;20470;-87
2023/03/31 01:05:03;;;;;;;3.50;1.05;;;;;;;8.71;100.00;97457.50;15317153;19;20013;-86
2023/03/31 01:10:29;;;;;;;5.10;1.20;;;;;;;8.77;100.00;97462.16;15315466;19;20010;-86
2023/03/31 01:16:01;;;;;;;4.28;1.23;;;;;;;8.88;100.00;97442.16;15316617;19;20015;-85
2023/03/31 01:21:55;;;;;;;5.22;1.20;;;;;;;9.01;100.00;97444.28;15319455;19;20031;-87
2023/03/31 01:27:42;;;;;;;3.95;1.10;;;;;;;9.14;100.00;97431.09;15306789;19;20046;-84
2023/03/31 01:33:45;;;;;;;5.57;1.20;;;;;;;9.22;100.00;97432.91;15305088;19;20018;-85
2023/03/31 01:39:30;;;;;;;;;;;;;;;9.27;100.00;97435.06;15304948;19;20014;-85
2023/03/31 01:45:11;;;;;;;3.28;1.02;;;;;;;9.32;100.00;97411.19;15304407;19;19971;-85
2023/03/31 01:50:40;;;;;;;4.68;1.30;;;;;;;9.34;100.00;97409.19;15302456;19;20532;-85
2023/03/31 01:56:11;;;;;;;4.05;1.33;;;;;;;9.30;100.00;97407.84;15301242;19;20015;-86
2023/03/31 02:01:44;;;;;;;4.80;1.20;;;;;;;9.25;100.00;97401.16;15306793;19;20050;-86
2023/03/31 02:07:12;;;;;;;4.78;1.23;;;;;;;9.34;100.00;97388.50;15300156;19;20010;-85
2023/03/31 02:12:42;;;;;;;3.47;1.10;;;;;;;9.32;100.00;97379.78;15302479;19;20028;-85
2023/03/31 02:18:16;;;;;;;3.35;1.10;;;;;;;9.29;100.00;97368.53;15300858;19;20021;-85
2023/03/31 02:23:41;;;;;;;4.68;1.13;;;;;;;9.27;100.00;97373.25;15294284;19;20077;-85
2023/03/31 02:29:07;;;;;;;2.92;1.02;;;;;;;9.27;100.00;97344.53;15296303;19;20022;-83
2023/03/31 02:34:34;;;;;;;3.05;1.00;;;;;;;9.25;100.00;97347.41;15301289;19;20015;-84
2023/03/31 02:40:03;;;;;;;4.50;1.25;;;;;;;9.23;100.00;97337.84;15312399;19;20085;-84
2023/03/31 02:45:45;;;;;;;3.60;1.05;;;;;;;9.17;100.00;97328.66;15321672;19;20014;-84
2023/03/31 02:51:38;;;;;;;3.90;1.20;;;;;;;9.16;100.00;97329.66;15364758;19;20014;-84
2023/03/31 02:57:31;;;;;;;3.30;1.10;;;;;;;9.26;100.00;97316.00;15343480;19;20014;-83
2023/03/31 03:03:11;;;;;;;5.15;1.23;;;;;;;9.28;100.00;97299.69;15308080;19;20018;-83
2023/03/31 03:08:55;;;;;;;3.97;1.00;;;;;;;9.30;100.00;97297.66;15307365;19;20035;-84
2023/03/31 03:14:33;;;;;;;4.25;1.10;;;;;;;9.31;100.00;97288.56;15302585;19;20014;-85
2023/03/31 03:20:01;;;;;;;2.00;1.08;;;;;;;9.29;100.00;97304.03;15308077;19;20017;-84
2023/03/31 03:25:29;;;;;;;3.65;1.38;;;;;;;9.27;100.00;97290.81;15303318;19;20014;-84
2023/03/31 03:30:54;;;;;;;2.63;1.10;;;;;;;9.22;100.00;97293.19;15299837;19;20028;-85
2023/03/31 03:36:19;;;;;;;4.20;1.30;;;;;;;9.13;100.00;97292.41;15308874;19;20018;-85
2023/03/31 03:41:46;;;;;;;3.53;1.33;;;;;;;9.08;100.00;97287.56;15308007;19;20015;-85
2023/03/31 03:47:11;;;;;;;5.93;1.25;;;;;;;9.00;100.00;97284.94;15303932;19;20514;-87
2023/03/31 03:52:35;;;;;;;5.75;1.45;;;;;;;8.91;100.00;97281.50;15310174;19;20027;-85
2023/03/31 03:58:03;;;;;;;5.70;1.58;;;;;;;8.86;100.00;97281.19;15305737;19;20022;-86
2023/03/31 04:03:30;;;;;;;5.18;1.25;;;;;;;8.78;100.00;97275.88;15310747;19;20023;-85
2023/03/31 04:08:55;;;;;;;3.65;1.13;;;;;;;8.74;100.00;97274.56;15315675;19;20027;-86
2023/03/31 04:14:29;;;;;;;3.72;1.27;;;;;;;8.75;100.00;97270.88;15307785;19;20014;-85
2023/03/31 04:20:00;;;;;;;3.58;1.30;;;;;;;8.73;100.00;97262.97;15313325;19;20021;-85
2023/03/31 04:25:29;;;;;;;5.00;1.30;;;;;;;8.73;100.00;97246.03;15315206;19;20011;-88
2023/03/31 04:30:57;;;;;;;4.50;1.10;;;;;;;8.71;100.00;97242.69;15312760;19;20527;-86
2023/03/31 04:36:22;;;;;;;4.95;1.45;;;;;;;8.68;100.00;97226.94;15304004;19;20017;-86
2023/03/31 04:41:47;;;;;;;4.38;1.25;;;;;;;8.69;100.00;97221.41;15305134;19;20049;-86
2023/03/31 04:47:15;;;;;;;3.15;1.23;;;;;;;8.67;100.00;97214.53;15297439;19;20374;-87
2023/03/31 04:52:41;;;;;;;4.28;1.17;;;;;;;8.68;100.00;97208.16;15304786;19;20098;-87
2023/03/31 04:58:07;;;;;;;5.30;1.00;;;;;;;8.68;100.00;97197.41;15316772;19;20011;-86
2023/03/31 05:03:36;;;;;;;3.28;1.20;;;;;;;8.68;100.00;97184.84;15312817;19;20022;-87
2023/03/31 05:09:02;;;;;;;4.45;1.23;;;;;;;8.68;100.00;97157.13;15316245;19;20026;-90
2023/03/31 05:14:35;;;;;;;3.58;1.17;;;;;;;8.68;100.00;97141.88;15311764;19;20533;-85
2023/03/31 05:20:04;;;;;;;4.88;1.27;;;;;;;8.68;100.00;97141.03;15315913;19;20018;-85
2023/03/31 05:25:36;;;;;;;3.47;1.20;;;;;;;8.66;100.00;97137.69;15314439;19;20018;-85
2023/03/31 05:31:03;;;;;;;4.97;1.60;;;;;;;8.64;100.00;97117.22;15308703;19;20026;-87
2023/03/31 05:36:46;;;;;;;4.63;1.40;;;;;;;8.66;100.00;97118.88;15309519;19;20014;-84
2023/03/31 05:42:12;;;;;;;5.00;1.20;;;;;;;8.70;100.00;97109.47;15304659;19;20048;-85
2023/03/31 05:47:36;;;;;;;3.55;1.10;;;;;;;8.74;100.00;97118.84;15324655;19;20102;-87
2023/03/31 05:53:04;;;;;;;3.83;1.10;;;;;;;8.80;100.00;97123.47;15310435;19;20387;-85
2023/03/31 05:58:30;;;;;;;5.65;1.25;;;;;;;8.82;100.00;97126.81;15312938;19;20010;-90
2023/03/31 06:03:55;;;;;;;4.88;1.40;;;;;;;8.87;100.00;97113.69;15312334;19;20021;-85
2023/03/31 06:09:37;;;;;;;3.83;1.30;;;;;;;8.88;100.00;97112.63;15309793;19;20014;-87
2023/03/31 06:15:12;;;;;;;;;;;;;;;8.89;100.00;97100.88;15308390;19;20018;-85
2023/03/31 06:20:43;;;;;;;3.25;1.20;;;;;;;8.98;100.00;97066.72;15313242;19;19942;-85
2023/03/31 06:26:15;;;;;;;4.90;1.17;;;;;;;9.01;100.00;97052.06;15308583;19;20035;-86
2023/03/31 06:31:42;;;;;;;4.83;1.30;;;;;;;9.07;100.00;97045.97;15304065;19;20014;-88
2023/03/31 06:37:07;;;;;;;4.72;1.20;;;;;;;9.13;100.00;97014.84;15308981;19;20014;-86
2023/03/31 06:42:33;;;;;;;5.32;1.33;;;;;;;9.20;100.00;97000.47;15311183;19;20015;-89
2023/03/31 06:48:07;;;;;;;4.05;1.10;;;;;;;9.27;100.00;96975.53;15306323;19;20482;-84
2023/03/31 06:53:31;;;;;;;5.68;1.55;;;;;;;9.36;100.00;96977.94;15304214;19;20020;-85
2023/03/31 06:59:26;;;;;;;4.50;1.35;;;;;;;9.49;100.00;96993.34;15304730;19;20086;-84
2023/03/31 07:04:53;;;;;;;3.72;1.40;;;;;;;9.62;100.00;96999.91;15301990;19;20026;-85
2023/03/31 07:10:22;;;;;;;5.22;1.40;;;;;;;9.65;100.00;96992.28;15294203;19;20017;-88
2023/03/31 07:15:49;;;;;;;6.22;1.67;;;;;;;9.70;100.00;96994.44;15317316;19;20015;-85
2023/03/31 07:21:17;;;;;;;5.07;1.23;;;;;;;9.70;100.00;96981.81;15309557;19;20010;-84
2023/03/31 07:26:42;;;;;;;4.43;1.50;;;;;;;9.77;100.00;96984.56;15314900;19;20014;-85
2023/03/31 07:32:06;;;;;;;4.50;1.35;;;;;;;9.82;100.00;96986.69;15322525;19;20022;-85
2023/03/31 07:37:36;;;;;;;4.07;1.27;;;;;;;9.86;100.00;96961.88;15322977;19;20371;-85
2023/03/31 07:43:02;;;;;;;3.27;1.23;;;;;;;9.94;100.00;96949.31;15332075;19;20024;-87
2023/03/31 07:48:27;;;;;;;4.05;1.00;;;;;;;9.99;100.00;96938.81;15333550;19;20094;-87
2023/03/31 07:54:03;;;;;;;4.00;1.20;;;;;;;10.03;100.00;96932.84;15309136;19;20021;-86
2023/03/31 07:59:29;;;;;;;2.10;0.82;;;;;;;10.06;100.00;96928.94;15309014;19;20028;-85
2023/03/31 08:04:55;;;;;;;3.45;1.10;;;;;;;10.12;100.00;96920.09;15313828;19;20010;-84
2023/03/31 08:10:27;;;;;;;3.42;1.20;;;;;;;10.12;100.00;96912.03;15315912;19;20006;-84
2023/03/31 08:15:59;;;;;;;4.63;1.20;;;;;;;10.21;100.00;96915.41;15317088;19;20769;-85
2023/03/31 08:21:25;;;;;;;2.22;0.93;;;;;;;10.27;100.00;96900.34;15314930;19;20027;-84
2023/03/31 08:26:52;;;;;;;2.20;1.00;;;;;;;10.29;100.00;96880.25;15317423;19;20019;-85
2023/03/31 08:32:17;;;;;;;3.22;0.98;;;;;;;10.44;100.00;96876.66;15313909;19;20010;-85
2023/03/31 08:37:41;;;;;;;3.22;1.00;;;;;;;10.58;100.00;96866.78;15303436;19;20014;-85
2023/03/31 08:43:16;;;;;;;3.90;1.10;;;;;;;10.59;100.00;96857.66;15320176;19;20015;-91
2023/03/31 08:48:54;;;;;;;3.08;1.08;;;;;;;10.47;100.00;96855.53;15322362;19;20038;-84
2023/03/31 08:54:31;;;;;;;2.63;1.00;;;;;;;10.54;100.00;96838.56;15314921;19;20031;-86
2023/03/31 09:00:05;;;;;;;2.55;1.00;;;;;;;10.46;100.00;96826.97;15310550;19;20029;-86
2023/03/31 09:05:44;;;;;;;3.10;0.98;;;;;;;10.51;100.00;96820.97;15294714;19;20011;-85
2023/03/31 09:11:36;;;;;;;2.17;0.98;;;;;;;10.42;100.00;96801.44;15286187;19;20029;-85
2023/03/31 09:17:14;;;;;;;2.75;0.90;;;;;;;10.51;100.00;96806.69;15289000;19;20018;-85
2023/03/31 09:22:44;;;;;;;1.58;0.88;;;;;;;10.57;100.00;96785.19;15290042;19;20014;-84
2023/03/31 09:28:20;;;;;;;3.03;0.73;;;;;;;10.57;100.00;96778.94;15304133;19;20015;-86
2023/03/31 09:33:51;;;;;;;3.13;0.90;;;;;;;10.52;100.00;96779.56;15312139;19;20022;-88
2023/03/31 09:39:16;;;;;;;3.33;0.87;;;;;;;10.50;100.00;96772.72;15315984;19;20075;-87
2023/03/31 09:44:48;;;;;;;2.97;0.95;;;;;;;10.41;100.00;96754.03;15309102;19;20387;-84
2023/03/31 09:50:17;;;;;;;3.87;1.00;;;;;;;10.33;100.00;96757.72;15316522;19;20018;-85
2023/03/31 09:55:55;;;;;;;2.60;1.42;;;;;;;10.28;100.00;96737.81;15305398;19;20037;-84
2023/03/31 10:01:25;;;;;;;2.05;1.00;;;;;;;10.21;100.00;96726.19;15308653;19;20085;-87
2023/03/31 10:06:54;;;;;;;2.63;1.20;;;;;;;10.12;100.00;96712.91;15297941;19;20066;-87
2023/03/31 10:12:23;;;;;;;2.25;0.70;;;;;;;10.00;100.00;96709.13;15305392;19;20070;-87
2023/03/31 10:17:52;;;;;;;1.25;0.70;;;;;;;10.01;100.00;96700.84;15306515;19;20018;-85
2023/03/31 10:23:28;;;;;;;2.10;0.82;;;;;;;9.93;100.00;96700.22;15302876;19;20011;-84
2023/03/31 10:28:55;;;;;;;1.60;1.00;;;;;;;9.91;100.00;96686.13;15312152;19;20037;-87
2023/03/31 10:34:25;;;;;;;2.10;0.65;;;;;;;9.87;100.00;96683.00;15310548;19;20014;-87
2023/03/31 10:39:47;;;;;;;1.15;0.60;;;;;;;9.79;100.00;96686.69;15308037;19;20028;-83
2023/03/31 10:45:26;;;;;;;1.88;0.70;;;;;;;9.77;100.00;96678.00;15326615;19;20027;-85
2023/03/31 10:50:56;;;;;;;1.50;0.63;;;;;;;9.72;100.00;96669.69;15305892;19;20024;-83
2023/03/31 10:56:41;;;;;;;1.55;0.75;;;;;;;9.70;100.00;96663.69;15276728;19;20014;-46
2023/03/31 11:02:23;;;;;;;2.22;0.80;;;;;;;9.71;100.00;96662.63;15273780;19;20026;-46
2023/03/31 11:08:03;;;;;;;1.60;1.00;;;;;;;9.69;100.00;96653.97;15282822;19;20016;31
2023/03/31 11:13:43;;;;;;;1.67;0.80;;;;;;;9.76;100.00;96649.44;15269276;19;20035;-52
2023/03/31 11:19:21;;;;;;;1.58;0.70;;;;;;;9.73;100.00;96649.81;15285793;19;20013;-50
2023/03/31 11:25:21;;;;;;;1.77;0.80;;;;;;;9.78;100.00;96646.53;15287800;19;20011;-50
2023/03/31 11:30:57;;;;;;;3.33;0.90;;;;;;;9.74;100.00;96637.22;15281457;19;20014;-48
2023/03/31 11:36:40;;;;;;;1.23;0.80;;;;;;;9.78;100.00;96647.38;15280350;19;20016;-49
2023/03/31 11:42:14;;;;;;;0.93;0.40;;;;;;;9.72;100.00;96632.03;15282565;19;20085;-50
2023/03/31 11:47:48;;;;;;;0.40;0.40;;;;;;;9.75;100.00;96637.00;15283339;19;20028;-52
2023/03/31 11:53:19;;;;;;;0.32;0.20;;;;;;;9.75;100.00;96606.63;15281224;19;20014;-48
2023/03/31 11:58:50;;;;;;;0.20;0.20;;;;;;;9.91;100.00;96597.38;15281683;19;20038;-47
2023/03/31 12:04:22;;;;;;;0.85;0.30;;;;;;;10.03;100.00;96593.06;15280554;19;20018;-50
2023/03/31 12:09:55;;;;;;;0.47;0.30;;;;;;;10.31;100.00;96609.06;15272548;19;20553;-48
2023/03/31 12:15:27;;;;;;;1.35;0.30;;;;;;;10.47;100.00;96585.47;15281002;19;20015;-50
2023/03/31 12:20:58;;;;;;;2.38;0.40;;;;;;;10.78;100.00;96567.88;15276708;19;20082;-51
2023/03/31 12:26:37;;;;;;;1.10;0.30;;;;;;;11.23;100.00;96559.13;15279966;19;20025;-47
2023/03/31 12:32:06;;;;;;;1.00;0.30;;;;;;;11.53;100.00;96547.81;15279019;19;20021;-51
2023/03/31 12:37:57;;;;;;;0.73;0.38;;;;;;;11.98;100.00;96542.44;15278191;19;20023;-49
2023/03/31 12:43:41;;;;;;;0.52;0.30;;;;;;;12.16;100.00;96525.50;15279658;19;20020;-49
2023/03/31 12:49:18;;;;;;;0.65;0.40;;;;;;;12.36;100.00;96515.59;15277188;19;20333;-52
2023/03/31 12:55:18;;;;;;;0.57;0.47;;;;;;;12.57;100.00;96506.28;15281801;19;20021;-53
2023/03/31 13:00:43;;;;;;;2.05;0.63;;;;;;;12.72;100.00;96500.53;15276730;19;20650;-51
2023/03/31 13:06:12;;;;;;;1.45;0.70;;;;;;;13.01;100.00;96493.59;15278130;19;20011;-49
2023/03/31 13:11:52;;;;;;;1.70;0.77;;;;;;;13.06;100.00;96466.69;15271768;19;20481;-50
2023/03/31 13:17:26;;;;;;;1.80;0.80;;;;;;;13.50;100.00;96482.03;15278125;19;20010;-44
2023/03/31 13:22:56;;;;;;;3.50;1.00;;;;;;;13.06;100.00;96468.59;15278066;19;20014;-46
2023/03/31 13:28:34;;;;;;;3.10;0.93;;;;;;;12.27;100.00;96488.88;15276001;19;20451;-47
2023/03/31 13:34:03;;;;;;;2.92;1.00;;;;;;;12.18;100.00;96482.91;15278123;19;20345;-48
2023/03/31 13:40:03;;;;;;;1.45;0.50;;;;;;;12.02;100.00;96476.19;15274278;19;20070;-51
2023/03/31 13:45:46;;;;;;;1.43;0.47;;;;;;;11.96;100.00;96489.69;15274428;19;20014;-45
2023/03/31 13:51:24;;;;;;;1.40;0.50;;;;;;;11.78;100.00;96493.13;15274378;19;20047;-48
2023/03/31 13:57:03;;;;;;;1.65;0.50;;;;;;;11.64;100.00;96481.59;15274806;19;20483;-48
2023/03/31 14:02:56;;;;;;;0.80;0.40;;;;;;;11.27;100.00;96490.25;15272086;19;20074;-45
2023/03/31 14:08:22;;;;;;;;;;;;;;;10.94;100.00;96499.28;15269204;19;20018;-49
2023/03/31 14:14:01;;;;;;;0.20;0.20;;;;;;;10.91;100.00;96500.53;15269578;19;19919;-53
2023/03/31 14:19:49;;;;;;;0.20;0.20;;;;;;;10.99;100.00;96502.19;15271280;19;20823;-49
2023/03/31 14:25:23;;;;;;;0.28;0.10;;;;;;;11.02;100.00;96498.22;15273057;19;20018;-46
2023/03/31 14:30:57;;;;;;;0.30;0.10;;;;;;;11.00;100.00;96486.81;15271213;19;20361;-50
2023/03/31 14:36:33;;;;;;;1.10;0.30;;;;;;;10.92;100.00;96491.41;15284793;19;20029;-50
2023/03/31 14:42:01;;;;;;;0.45;0.20;;;;;;;11.00;100.00;96506.50;15280895;19;20029;-48
2023/03/31 14:47:29;;;;;;;0.65;0.20;;;;;;;10.99;100.00;96487.88;15282593;19;20025;-48
2023/03/31 14:53:00;;;;;;;0.47;0.20;;;;;;;11.07;100.00;96477.69;15282188;19;20007;-46
2023/03/31 14:58:29;;;;;;;0.20;0.20;;;;;;;10.96;100.00;96478.34;15284655;19;20025;-48
2023/03/31 15:03:57;;;;;;;0.47;0.20;;;;;;;10.97;100.00;96471.91;15280570;19;20025;-49
2023/03/31 15:09:35;;;;;;;0.52;0.30;;;;;;;11.15;100.00;96479.31;15280105;19;20041;-47
2023/03/31 15:15:06;;;;;;;1.15;0.20;;;;;;;11.29;100.00;96476.59;15275943;19;20010;-51
2023/03/31 15:20:43;;;;;;;0.30;0.20;;;;;;;11.31;100.00;96464.53;15276653;19;20018;-47
2023/03/31 15:26:13;;;;;;;0.43;0.28;;;;;;;11.16;100.00;96458.56;15283185;19;20021;-49
2023/03/31 15:31:48;;;;;;;1.80;0.40;;;;;;;11.12;100.00;96460.03;15277623;19;20019;-50
2023/03/31 15:37:21;;;;;;;1.42;0.70;;;;;;;11.12;100.00;96451.94;15284916;19;20348;-48
2023/03/31 15:42:50;;;;;;;1.67;0.50;;;;;;;11.14;100.00;96457.97;15274039;19;20198;-53
2023/03/31 15:48:27;;;;;;;2.42;0.50;;;;;;;11.40;100.00;96455.16;15278175;19;20025;-53
2023/03/31 15:53:55;;;;;;;1.63;0.60;;;;;;;11.45;100.00;96453.69;15272221;19;20041;-51
2023/03/31 15:59:30;;;;;;;1.45;0.65;;;;;;;11.40;100.00;96454.34;15275740;19;20579;-50
2023/03/31 16:05:23;;;;;;;;;;;;;;;11.34;100.00;96453.34;15283446;19;20011;-49
2023/03/31 16:11:15;;;;;;;2.47;0.80;;;;;;;11.35;100.00;96454.97;15276649;19;19915;-47
2023/03/31 16:16:48;;;;;;;3.08;0.70;;;;;;;11.51;100.00;96447.41;15277675;19;20026;-51
2023/03/31 16:22:14;;;;;;;1.98;0.77;;;;;;;11.70;100.00;96443.78;15267559;19;20086;-49
2023/03/31 16:27:45;;;;;;;2.05;0.80;;;;;;;11.66;100.00;96442.56;15267026;19;20018;-50
2023/03/31 16:33:14;;;;;;;1.60;0.50;;;;;;;11.60;100.00;96462.31;15269334;19;20014;-53
2023/03/31 16:38:39;;;;;;;1.52;0.70;;;;;;;11.70;100.00;96454.56;15268429;19;20018;-51
2023/03/31 16:44:05;;;;;;;1.25;0.55;;;;;;;11.75;100.00;96461.19;15270241;19;20025;-51
2023/03/31 16:49:33;;;;;;;1.13;0.57;;;;;;;11.57;100.00;96460.88;15266794;19;20793;-47
2023/03/31 16:54:58;;;;;;;1.33;0.38;;;;;;;11.40;100.00;96462.44;15264138;19;20137;-51
2023/03/31 17:00:23;;;;;;;1.13;0.47;;;;;;;11.23;100.00;96476.38;15268742;19;20313;-50
2023/03/31 17:05:51;;;;;;;1.02;0.52;;;;;;;11.06;100.00;96475.19;15275027;19;20014;-49
2023/03/31 17:11:17;;;;;;;1.40;0.77;;;;;;;11.01;100.00;96470.44;15276933;19;20010;-48
2023/03/31 17:16:42;;;;;;;2.22;0.70;;;;;;;10.96;100.00;96481.03;15280702;19;20267;-50
2023/03/31 17:22:10;;;;;;;1.38;0.55;;;;;;;10.84;100.00;96488.94;15275320;19;20347;-47
2023/03/31 17:27:36;;;;;;;2.20;0.73;;;;;;;10.75;100.00;96495.59;15276393;19;20496;-50
2023/03/31 17:33:01;;;;;;;1.95;0.70;;;;;;;10.62;100.00;96508.03;15270889;19;20248;-49
2023/03/31 17:38:28;;;;;;;2.92;0.80;;;;;;;10.50;100.00;96508.88;15271374;19;20013;-47
2023/03/31 17:43:54;;;;;;;2.13;0.80;;;;;;;10.39;100.00;96515.69;15274459;19;20044;-52
2023/03/31 17:49:18;;;;;;;2.45;0.82;;;;;;;10.29;100.00;96529.56;15272749;19;20015;-48
2023/03/31 17:54:46;;;;;;;1.27;0.60;;;;;;;10.21;100.00;96535.97;15267498;19;20023;-48
2023/03/31 18:00:13;;;;;;;1.48;0.70;;;;;;;10.09;100.00;96537.59;15270257;19;20078;-51
2023/03/31 18:05:40;;;;;;;2.50;0.90;;;;;;;9.86;100.00;96550.38;15276007;19;20011;-48
2023/03/31 18:11:07;;;;;;;1.60;0.80;;;;;;;9.77;100.00;96559.66;15269956;19;20128;-51
2023/03/31 18:16:33;;;;;;;2.28;0.80;;;;;;;9.64;100.00;96581.13;15271434;19;20021;-49
2023/03/31 18:21:57;;;;;;;2.70;0.77;;;;;;;9.53;100.00;96585.22;15269740;19;20015;-48
2023/03/31 18:27:28;;;;;;;3.13;1.08;;;;;;;9.45;100.00;96594.28;15268265;19;20119;-50
2023/03/31 18:32:53;;;;;;;4.23;1.23;;;;;;;9.38;100.00;96598.78;15264277;19;20037;-48
2023/03/31 18:38:18;;;;;;;3.42;1.40;;;;;;;9.37;100.00;96581.84;15271779;19;20025;-50
2023/03/31 18:43:46;;;;;;;2.33;1.10;;;;;;;9.27;100.00;96592.13;15270957;19;20018;-48
2023/03/31 18:49:12;;;;;;;2.28;1.08;;;;;;;9.24;100.00;96598.72;15268354;19;20027;-49
2023/03/31 18:54:37;;;;;;;2.95;1.05;;;;;;;9.21;100.00;96601.81;15268853;19;20024;-49
2023/03/31 19:00:06;;;;;;;3.78;1.45;;;;;;;9.09;100.00;96609.56;15268059;19;20014;-48
2023/03/31 19:05:30;;;;;;;5.28;1.10;;;;;;;9.04;100.00;96632.69;15264085;19;20138;-46
2023/03/31 19:11:05;;;;;;;3.13;1.10;;;;;;;9.06;100.00;96633.31;15266545;19;20074;-45
2023/03/31 19:16:40;;;;;;;3.75;1.27;;;;;;;9.07;100.00;96651.09;15269754;19;20026;-43
2023/03/31 19:22:05;;;;;;;2.90;1.50;;;;;;;9.11;100.00;96644.31;15277532;19;20036;-47
2023/03/31 19:27:30;;;;;;;5.10;1.27;;;;;;;9.08;100.00;96647.38;15280943;19;20019;-45
2023/03/31 19:33:00;;;;;;;3.17;1.10;;;;;;;9.10;100.00;96645.34;15281814;19;20090;-47
2023/03/31 19:38:30;;;;;;;3.67;1.20;;;;;;;9.11;100.00;96655.06;15276092;19;20026;-46
2023/03/31 19:43:55;;;;;;;2.60;1.10;;;;;;;9.08;100.00;96647.38;15283844;19;20692;-47
2023/03/31 19:49:22;;;;;;;3.38;1.20;;;;;;;9.10;100.00;96642.66;15281161;19;20396;-48
2023/03/31 19:54:47;;;;;;;3.15;1.10;;;;;;;9.02;100.00;96635.56;15281192;19;20029;-48
2023/03/31 20:00:17;;;;;;;3.95;1.10;;;;;;;9.02;100.00;96634.72;15283463;19;20033;-46
2023/03/31 20:05:45;;;;;;;2.42;0.80;;;;;;;9.01;100.00;96614.25;15285357;19;20078;-45
2023/03/31 20:11:10;;;;;;;2.78;0.73;;;;;;;9.05;100.00;96599.44;15282243;19;20363;-44
2023/03/31 20:16:37;;;;;;;1.63;0.60;;;;;;;9.06;100.00;96601.91;15276695;19;20090;-47
2023/03/31 20:22:04;;;;;;;1.20;0.70;;;;;;;9.09;100.00;96600.69;15279108;19;20025;-45
2023/03/31 20:27:30;;;;;;;2.47;0.57;;;;;;;9.05;100.00;96599.44;15280638;19;20584;-46
2023/03/31 20:32:54;;;;;;;2.05;0.63;;;;;;;9.01;100.00;96592.78;15257070;19;20390;-46
2023/03/31 20:38:22;;;;;;;0.90;0.50;;;;;;;8.97;100.00;96596.91;15280896;19;20006;-46
2023/03/31 20:43:49;;;;;;;1.13;0.50;;;;;;;8.97;100.00;96602.28;15277797;19;20015;-48
2023/03/31 20:49:14;;;;;;;2.15;0.80;;;;;;;8.95;100.00;96605.13;15279573;19;20011;-45
2023/03/31 20:54:41;;;;;;;2.47;0.88;;;;;;;8.93;100.00;96607.22;15278515;19;20106;-43
2023/03/31 21:00:07;;;;;;;2.38;0.80;;;;;;;8.93;100.00;96613.41;15279783;19;20017;-44
2023/03/31 21:05:31;;;;;;;1.67;0.68;;;;;;;8.88;100.00;96623.88;15277465;19;20818;-47
2023/03/31 21:11:00;;;;;;;3.42;0.70;;;;;;;8.83;100.00;96618.28;15275775;19;20010;-46
2023/03/31 21:16:25;;;;;;;2.05;0.70;;;;;;;8.84;100.00;96619.94;15270124;19;20017;-44
2023/03/31 21:21:50;;;;;;;2.25;0.57;;;;;;;8.83;100.00;96612.91;15273507;19;20015;-45
2023/03/31 21:27:17;;;;;;;2.30;0.70;;;;;;;8.82;100.00;96613.94;15278115;19;20021;-46
2023/03/31 21:32:43;;;;;;;2.83;0.70;;;;;;;8.77;100.00;96616.34;15275524;19;20007;-44
2023/03/31 21:38:07;;;;;;;1.20;0.52;;;;;;;8.82;100.00;96613.94;15277338;19;20365;-48
2023/03/31 21:43:36;;;;;;;1.38;0.60;;;;;;;8.77;100.00;96609.16;15277453;19;20011;-45
2023/03/31 21:49:01;;;;;;;1.63;0.70;;;;;;;8.76;100.00;96606.69;15267833;19;20085;-49
2023/03/31 21:54:26;;;;;;;2.38;0.70;;;;;;;8.74;100.00;96606.03;15276706;19;20026;-47
2023/03/31 21:59:53;;;;;;;1.77;0.60;;;;;;;8.69;100.00;96606.63;15272324;19;20055;-44
2023/03/31 22:05:18;;;;;;;1.60;0.68;;;;;;;8.66;100.00;96614.19;15277031;19;20035;-45
2023/03/31 22:10:43;;;;;;;2.58;0.80;;;;;;;8.62;100.00;96603.03;15272120;19;20460;-44
2023/03/31 22:16:17;;;;;;;2.25;0.55;;;;;;;8.64;100.00;96617.09;15273002;19;20016;-43
2023/03/31 22:21:43;;;;;;;1.38;0.50;;;;;;;8.55;100.00;96618.25;15270258;19;20010;-43
2023/03/31 22:27:09;;;;;;;1.98;0.60;;;;;;;8.52;100.00;96624.00;15276514;19;20014;-49
2023/03/31 22:32:36;;;;;;;2.33;0.60;;;;;;;8.48;100.00;96608.28;15274546;19;20024;-47
2023/03/31 22:38:01;;;;;;;1.85;0.70;;;;;;;8.44;100.00;96616.88;15273643;19;20014;-45
2023/03/31 22:43:26;;;;;;;1.63;0.52;;;;;;;8.41;100.00;96617.28;15275397;19;20016;-47
2023/03/31 22:48:54;;;;;;;1.75;0.47;;;;;;;8.43;100.00;96628.63;15274024;19;20013;-48
2023/03/31 22:54:21;;;;;;;1.92;0.60;;;;;;;8.46;100.00;96623.75;15274914;19;20052;-47
2023/03/31 22:59:46;;;;;;;2.45;0.50;;;;;;;8.44;100.00;96636.50;15282502;19;20543;-46
2023/03/31 23:05:14;;;;;;;1.35;0.52;;;;;;;8.44;100.00;96630.28;15301719;19;20048;-46
2023/03/31 23:10:39;;;;;;;1.40;0.60;;;;;;;8.48;100.00;96620.88;15283868;19;20409;-43
2023/03/31 23:16:05;;;;;;;2.72;0.60;;;;;;;8.60;100.00;96613.97;15284709;19;20522;-45
2023/03/31 23:21:33;;;;;;;1.70;0.70;;;;;;;8.61;100.00;96618.31;15282273;19;20081;-46
2023/03/31 23:26:57;;;;;;;1.83;0.60;;;;;;;8.62;100.00;96611.94;15280553;19;20029;-47
2023/03/31 23:32:22;;;;;;;1.63;0.60;;;;;;;8.67;100.00;96613.19;15283182;19;20025;-48
2023/03/31 23:37:49;;;;;;;1.70;0.60;;;;;;;8.71;100.00;96598.34;15279233;19;20496;-46
2023/03/31 23:43:15;;;;;;;2.85;0.60;;;;;;;8.74;100.00;96592.59;15287503;19;20018;-45
2023/03/31 23:48:41;;;;;;;1.77;0.50;;;;;;;8.81;100.00;96587.28;15286201;19;20017;-46
2023/03/31 23:54:09;;;;;;;3.08;0.80;;;;;;;8.83;100.00;96594.13;15285122;19;20993;-47
2023/03/31 23:59:33;;;;;;;1.33;0.60;;;;;;;8.92;100.00;96586.75;15278734;19;20078;-44
